Time;durP1;ratioP1;P1;durP2;ratioP2;P2;SDS_P1;SDS_P2;PMS_P1;PMS_P2;Temp;Humidity;BMP_temperature;BMP_pressure;BME280_temperature;BME280_humidity;BME280_pressure;Samples;Min_cycle;Max_cycle;Signal;HPM_P1;HPM_P2
2021/07/19 00:01:54;;;;;;;;;;;;;;;27.14;60.07;98735.88;5093135;28;19982;-49
2021/07/19 00:04:19;;;;;;;;;;;;;;;26.82;61.06;98735.53;5093194;28;20007;-52
2021/07/19 00:06:45;;;;;;;;;;;;;;;26.63;61.50;98731.38;5093213;28;19912;-50
2021/07/19 00:09:10;;;;;;;;;;;;;;;26.77;61.32;98739.28;5093292;28;20368;-50
2021/07/19 00:11:38;;;;;;;;;;;;;;;26.92;60.71;98735.09;5093127;28;20334;-49
2021/07/19 00:14:04;;;;;;;;;;;;;;;27.14;60.13;98744.84;5092033;28;19970;-51
2021/07/19 00:16:29;;;;;;;;;;;;;;;26.78;60.98;98740.88;5092879;28;19943;-50
2021/07/19 00:18:54;;;;;;;;;;;;;;;26.53;62.03;98740.75;5108001;28;20351;-53
2021/07/19 00:21:20;;;;;;;;;;;;;;;26.86;60.61;98736.47;5113640;28;19911;-47
2021/07/19 00:23:45;;;;;;;;;;;;;;;27.33;59.46;98730.69;5113461;28;19927;-51
2021/07/19 00:26:10;;;;;;;;;;;;;;;27.34;59.32;98740.50;5113875;27;19999;-52
2021/07/19 00:28:35;;;;;;;;;;;;;;;27.17;59.76;98732.44;5113822;28;19912;-49
2021/07/19 00:31:01;;;;;;;;;;;;;;;27.11;59.98;98734.59;5113828;28;19922;-48
2021/07/19 00:33:26;;;;;;;;;;;;;;;26.80;61.14;98737.81;5113454;28;19958;-52
2021/07/19 00:35:51;;;;;;;;;;;;;;;27.17;60.02;98738.72;5113707;28;19919;-49
2021/07/19 00:38:16;;;;;;;;;;;;;;;26.91;60.77;98731.59;5094434;28;19912;-49
2021/07/19 00:40:42;;;;;;;;;;;;;;;26.46;62.04;98732.28;5093140;28;20384;-48
2021/07/19 00:43:07;;;;;;;;;;;;;;;26.13;62.95;98730.31;5092882;28;20272;-48
2021/07/19 00:45:33;;;;;;;;;;;;;;;26.00;63.39;98725.91;5093005;28;20368;-49
2021/07/19 00:47:58;;;;;;;;;;;;;;;26.54;61.84;98725.19;5092890;28;19912;-50
2021/07/19 00:50:24;;;;;;;;;;;;;;;26.37;61.98;98722.59;5092775;28;19912;-49
2021/07/19 00:52:56;;;;;;;;;;;;;;;26.16;62.71;98734.31;5093126;28;19944;-49
2021/07/19 00:55:21;;;;;;;;;;;;;;;25.86;63.91;98717.94;5092601;28;19995;-51
2021/07/19 00:57:47;;;;;;;;;;;;;;;26.05;63.00;98717.53;5091643;28;19954;-50
2021/07/19 01:00:13;;;;;;;;;;;;;;;26.36;62.18;98719.06;5092710;28;19981;-50
2021/07/19 01:02:40;;;;;;;;;;;;;;;26.42;61.90;98715.00;5092614;28;19912;-52
2021/07/19 01:05:06;;;;;;;;;;;;;;;26.07;62.70;98722.66;5091359;28;20260;-51
2021/07/19 01:07:31;;;;;;;;;;;;;;;26.06;62.94;98719.13;5092452;28;19919;-51
2021/07/19 01:09:56;;;;;;;;;;;;;;;26.46;61.54;98721.38;5091356;28;19912;-52
2021/07/19 01:12:22;;;;;;;;;;;;;;;27.22;59.24;98729.50;5091343;28;19927;-52
2021/07/19 01:14:47;;;;;;;;;;;;;;;26.95;59.93;98728.19;5091225;28;19974;-50
2021/07/19 01:17:12;;;;;;;;;;;;;;;26.82;60.26;98730.88;5093133;28;19916;-51
2021/07/19 01:19:38;;;;;;;;;;;;;;;26.70;60.50;98730.84;5112475;28;19990;-49
2021/07/19 01:22:09;;;;;;;;;;;;;;;26.48;60.98;98738.22;5111353;28;19965;-51
2021/07/19 01:24:40;;;;;;;;;;;;;;;27.22;58.45;98732.22;5112683;28;19959;-51
2021/07/19 01:27:24;;;;;;;;;;;;;;;26.64;59.94;98732.19;5111455;28;19969;-51
2021/07/19 01:29:49;;;;;;;;;;;;;;;26.30;61.01;98725.84;5112556;28;19961;-48
2021/07/19 01:32:14;;;;;;;;;;;;;;;26.54;60.43;98733.38;5111137;28;19920;-49
2021/07/19 01:34:40;;;;;;;;;;;;;;;26.85;59.02;98735.69;5112470;28;19961;-51
2021/07/19 01:37:05;;;;;;;;;;;;;;;27.53;56.84;98741.84;5101929;28;20037;-50
2021/07/19 01:39:35;;;;;;;;;;;;;;;26.45;59.72;98732.66;5090844;28;19912;-51
2021/07/19 01:42:00;;;;;;;;;;;;;;;25.76;61.46;98731.97;5091937;28;19955;-51
2021/07/19 01:44:26;;;;;;;;;;;;;;;25.85;61.12;98738.13;5091733;28;19955;-50
2021/07/19 01:46:51;;;;;;;;;;;;;;;25.89;60.92;98733.66;5091702;28;20010;-51
2021/07/19 01:49:16;;;;;;;;;;;;;;;26.62;58.09;98739.91;5090543;28;20015;-51
2021/07/19 01:51:42;;;;;;;;;;;;;;;25.89;60.05;98741.81;5073249;28;19926;-50
2021/07/19 01:54:07;;;;;;;;;;;;;;;26.03;59.97;98743.53;5091830;28;19912;-51
2021/07/19 01:56:33;;;;;;;;;;;;;;;26.28;59.10;98744.47;5090413;28;19912;-51
2021/07/19 01:58:59;;;;;;;;;;;;;;;26.71;57.25;98755.06;5090426;28;19919;-53
2021/07/19 02:01:25;;;;;;;;;;;;;;;26.79;57.16;98747.13;5090307;28;19947;-53
2021/07/19 02:03:50;;;;;;;;;;;;;;;26.48;58.07;98746.41;5090351;28;20041;-52
2021/07/19 02:06:16;;;;;;;;;;;;;;;25.99;58.88;98745.31;5091582;28;19998;-51
2021/07/19 02:08:41;;;;;;;;;;;;;;;25.83;59.83;98739.59;5091825;28;20339;-51
2021/07/19 02:11:06;;;;;;;;;;;;;;;26.28;58.32;98747.22;5090038;28;20291;-49
2021/07/19 02:13:32;;;;;;;;;;;;;;;26.97;56.15;98750.50;5090286;28;19920;-51
2021/07/19 02:15:58;;;;;;;;;;;;;;;26.12;58.98;98753.25;5091322;28;20050;-52
2021/07/19 02:18:24;;;;;;;;;;;;;;;25.95;59.36;98750.63;5100969;28;19927;-50
2021/07/19 02:20:49;;;;;;;;;;;;;;;26.27;58.53;98745.59;5111665;28;20038;-50
2021/07/19 02:23:14;;;;;;;;;;;;;;;26.46;57.54;98740.47;5111627;28;19953;-52
2021/07/19 02:25:40;;;;;;;;;;;;;;;27.30;55.52;98753.22;5110057;28;20368;-52
2021/07/19 02:28:07;;;;;;;;;;;;;;;26.54;57.75;98755.19;5111411;28;19954;-51
2021/07/19 02:30:33;;;;;;;;;;;;;;;26.43;58.03;98757.53;5111061;28;19916;-52
2021/07/19 02:32:58;;;;;;;;;;;;;;;26.16;58.93;98758.03;5109968;28;19912;-52
2021/07/19 02:35:24;;;;;;;;;;;;;;;27.08;56.41;98752.47;5110097;28;19911;-51
2021/07/19 02:37:50;;;;;;;;;;;;;;;25.98;59.23;98752.69;5094273;28;20525;-48
2021/07/19 02:40:16;;;;;;;;;;;;;;;25.85;59.84;98746.31;5090919;28;19977;-49
2021/07/19 02:42:42;;;;;;;;;;;;;;;26.47;58.37;98755.72;5090895;28;19913;-51
2021/07/19 02:45:11;;;;;;;;;;;;;;;26.51;57.92;98767.56;5090852;28;19916;-52
2021/07/19 02:47:36;;;;;;;;;;;;;;;27.14;56.08;98771.38;5091473;28;19912;-51
2021/07/19 02:50:03;;;;;;;;;;;;;;;26.93;56.37;98769.47;5090805;28;20360;-51
2021/07/19 02:52:28;;;;;;;;;;;;;;;26.63;57.27;98772.28;5090816;28;20003;-50
2021/07/19 02:54:53;;;;;;;;;;;;;;;26.80;57.24;98767.81;5089178;28;20057;-48
2021/07/19 02:57:18;;;;;;;;;;;;;;;27.18;56.02;98772.28;5089355;28;19916;-50
2021/07/19 02:59:44;;;;;;;;;;;;;;;27.78;54.35;98772.72;5089667;28;20014;-52
2021/07/19 03:02:09;;;;;;;;;;;;;;;27.57;54.44;98768.16;5091231;28;19912;-52
2021/07/19 03:04:34;;;;;;;;;;;;;;;27.18;55.74;98775.78;5089766;28;19949;-52
2021/07/19 03:07:00;;;;;;;;;;;;;;;27.21;55.64;98771.63;5090003;28;19919;-50
2021/07/19 03:09:25;;;;;;;;;;;;;;;27.37;55.44;98772.56;5090921;28;19912;-52
2021/07/19 03:11:50;;;;;;;;;;;;;;;28.05;53.30;98772.06;5089506;28;19969;-52
2021/07/19 03:14:17;;;;;;;;;;;;;;;27.48;54.86;98770.19;5089448;28;19912;-55
2021/07/19 03:16:43;;;;;;;;;;;;;;;27.27;55.25;98773.03;5089524;28;19942;-51
2021/07/19 03:19:09;;;;;;;;;;;;;;;27.18;55.38;98777.75;5107446;28;20276;-50
2021/07/19 03:21:35;;;;;;;;;;;;;;;27.52;54.61;98778.53;5109829;28;20405;-51
2021/07/19 03:24:00;;;;;;;;;;;;;;;28.31;52.55;98772.81;5109793;28;20320;-52
2021/07/19 03:26:26;;;;;;;;;;;;;;;27.63;53.87;98769.53;5109712;28;20298;-52
2021/07/19 03:28:51;;;;;;;;;;;;;;;27.27;55.18;98773.81;5109588;28;20351;-50
2021/07/19 03:31:16;;;;;;;;;;;;;;;27.22;55.38;98779.44;5111049;28;20029;-50
2021/07/19 03:33:43;;;;;;;;;;;;;;;27.60;54.60;98783.88;5110714;28;20426;-50
2021/07/19 03:36:09;;;;;;;;;;;;;;;28.15;52.89;98787.19;5111108;28;19919;-52
2021/07/19 03:38:35;;;;;;;;;;;;;;;27.59;54.49;98797.88;5110846;28;20271;-52
2021/07/19 03:41:00;;;;;;;;;;;;;;;27.46;55.14;98789.66;5109278;28;19912;-51
2021/07/19 03:43:25;;;;;;;;;;;;;;;27.53;54.89;98791.84;5110465;28;19969;-52
2021/07/19 03:45:51;;;;;;;;;;;;;;;27.82;54.04;98793.56;5109448;28;20004;-49
2021/07/19 03:48:17;;;;;;;;;;;;;;;28.59;51.71;98794.78;5110650;28;20023;-52
2021/07/19 03:50:42;;;;;;;;;;;;;;;28.36;52.77;98789.78;5113480;28;19912;-48
2021/07/19 03:53:08;;;;;;;;;;;;;;;28.04;53.68;98795.06;5114317;28;20363;-49
2021/07/19 03:55:33;;;;;;;;;;;;;;;28.07;53.94;98805.31;5099998;28;19912;-51
2021/07/19 03:57:58;;;;;;;;;;;;;;;28.17;53.15;98806.00;5093635;28;19918;-50
2021/07/19 04:00:24;;;;;;;;;;;;;;;28.76;51.46;98805.44;5092136;28;19916;-49
2021/07/19 04:02:52;;;;;;;;;;;;;;;27.93;53.54;98806.81;5093668;28;19912;-50
2021/07/19 04:05:17;;;;;;;;;;;;;;;27.79;55.03;98812.59;5093256;28;20463;-52
2021/07/19 04:07:43;;;;;;;;;;;;;;;27.71;53.96;98818.97;5085693;28;19955;-52
2021/07/19 04:10:09;;;;;;;;;;;;;;;27.75;54.05;98814.41;5080663;28;20233;-52
2021/07/19 04:12:35;;;;;;;;;;;;;;;28.71;51.92;98818.56;5073460;28;19920;-52
2021/07/19 04:15:01;;;;;;;;;;;;;;;27.88;53.53;98810.53;5071691;28;20003;-50
2021/07/19 04:17:26;;;;;;;;;;;;;;;27.90;53.75;98823.91;5076513;28;19917;-51
2021/07/19 04:19:51;;;;;;;;;;;;;;;27.83;53.52;98821.69;5112385;28;20031;-52
2021/07/19 04:22:17;;;;;;;;;;;;;;;28.30;51.43;98821.25;5111990;28;19958;-51
2021/07/19 04:24:42;;;;;;;;;;;;;;;29.03;49.23;98822.22;5113460;28;20336;-52
2021/07/19 04:27:08;;;;;;;;;;;;;;;27.99;52.31;98827.31;5113334;28;19969;-51
2021/07/19 04:29:33;;;;;;;;;;;;;;;28.03;51.95;98830.97;5111695;28;19950;-52
2021/07/19 04:31:58;;;;;;;;;;;;;;;28.33;51.13;98837.00;5113711;28;19912;-51
2021/07/19 04:34:27;;;;;;;;;;;;;;;28.50;50.55;98833.19;5113491;28;20014;-50
2021/07/19 04:36:53;;;;;;;;;;;;;;;28.58;49.83;98831.50;5112879;28;20274;-51
2021/07/19 04:39:18;;;;;;;;;;;;;;;28.10;51.68;98842.09;5112797;28;19998;-51
2021/07/19 04:41:43;;;;;;;;;;;;;;;27.82;52.54;98844.72;5112646;28;20014;-52
2021/07/19 04:44:09;;;;;;;;;;;;;;;27.93;53.91;98848.63;5112382;28;19973;-53
2021/07/19 04:46:34;;;;;;;;;;;;;;;28.51;52.66;98842.19;5112384;28;20029;-51
2021/07/19 04:48:59;;;;;;;;;;;;;;;28.16;53.73;98846.22;5112455;28;19985;-50
2021/07/19 04:51:24;;;;;;;;;;;;;;;27.87;54.55;98847.19;5112290;28;20273;-52
2021/07/19 04:53:50;;;;;;;;;;;;;;;27.81;54.69;98854.81;5112269;28;19916;-50
2021/07/19 04:56:16;;;;;;;;;;;;;;;27.79;54.93;98853.56;5090489;28;20346;-51
2021/07/19 04:58:41;;;;;;;;;;;;;;;28.08;53.45;98858.06;5089984;28;20264;-51
2021/07/19 05:01:07;;;;;;;;;;;;;;;28.93;51.49;98863.78;5089704;28;20375;-51
2021/07/19 05:03:34;;;;;;;;;;;;;;;28.00;54.09;98857.03;5121993;27;20374;-51
2021/07/19 05:05:59;;;;;;;;;;;;;;;27.99;54.17;98860.91;5088965;28;19919;-53
2021/07/19 05:08:24;;;;;;;;;;;;;;;28.39;52.79;98856.69;5090192;28;19916;-52
2021/07/19 05:10:50;;;;;;;;;;;;;;;28.74;51.80;98859.72;5090455;28;19981;-52
2021/07/19 05:13:15;;;;;;;;;;;;;;;29.42;50.03;98850.69;5105928;27;20399;-52
2021/07/19 05:15:40;;;;;;;;;;;;;;;28.82;51.21;98861.53;5071132;28;19955;-52
2021/07/19 05:18:06;;;;;;;;;;;;;;;28.62;52.28;98854.28;5086321;28;19967;-51
2021/07/19 05:20:31;;;;;;;;;;;;;;;28.88;51.76;98862.06;5110686;28;20012;-53
2021/07/19 05:22:57;;;;;;;;;;;;;;;29.50;50.05;98857.16;5110807;28;19911;-52
2021/07/19 05:25:23;;;;;;;;;;;;;;;30.05;48.55;98867.56;5110496;28;19919;-53
2021/07/19 05:28:07;;;;;;;;;;;;;;;30.18;48.53;98869.06;5109404;28;19912;-53
2021/07/19 05:30:33;;;;;;;;;;;;;;;29.33;50.34;98877.47;5110747;28;19922;-52
2021/07/19 05:32:58;;;;;;;;;;;;;;;28.80;51.76;98880.22;5110382;28;20011;-53
2021/07/19 05:35:23;;;;;;;;;;;;;;;29.39;51.16;98872.53;5108572;28;19969;-53
2021/07/19 05:37:49;;;;;;;;;;;;;;;29.86;49.57;98876.50;5108744;28;19995;-53
2021/07/19 05:40:14;;;;;;;;;;;;;;;30.53;48.12;98871.84;5108897;28;19949;-52
2021/07/19 05:42:41;;;;;;;;;;;;;;;30.60;47.82;98871.22;5108486;28;20272;-53
2021/07/19 05:45:06;;;;;;;;;;;;;;;30.60;47.75;98876.72;5108737;28;19916;-51
2021/07/19 05:47:33;;;;;;;;;;;;;;;30.52;48.26;98875.75;5109261;28;19912;-52
2021/07/19 05:49:58;;;;;;;;;;;;;;;30.39;48.39;98877.81;5110157;28;19920;-52
2021/07/19 05:52:23;;;;;;;;;;;;;;;31.21;46.64;98880.75;5109835;28;20299;-53
2021/07/19 05:54:49;;;;;;;;;;;;;;;30.58;48.70;98881.78;5101938;28;19912;-54
2021/07/19 05:57:14;;;;;;;;;;;;;;;30.50;49.16;98869.03;5071483;28;19916;-50
2021/07/19 05:59:39;;;;;;;;;;;;;;;30.93;48.70;98869.97;5089759;28;19912;-50
2021/07/19 06:02:04;;;;;;;;;;;;;;;31.32;48.02;98880.94;5088378;28;19912;-52
2021/07/19 06:04:30;;;;;;;;;;;;;;;32.34;45.24;98874.88;5089586;28;19916;-52
2021/07/19 06:06:55;;;;;;;;;;;;;;;31.85;46.34;98875.63;5089606;28;20051;-52
2021/07/19 06:09:20;;;;;;;;;;;;;;;31.37;47.13;98883.41;5089445;28;19912;-52
2021/07/19 06:11:46;;;;;;;;;;;;;;;31.18;47.22;98881.47;5089387;28;20007;-52
2021/07/19 06:14:11;;;;;;;;;;;;;;;31.30;47.33;98878.56;5089346;28;19939;-52
2021/07/19 06:16:36;;;;;;;;;;;;;;;32.04;45.63;98877.56;5089217;28;20010;-53
2021/07/19 06:19:02;;;;;;;;;;;;;;;31.38;47.23;98879.50;5105031;28;20250;-51
2021/07/19 06:21:27;;;;;;;;;;;;;;;30.62;48.61;98868.91;5109832;28;20021;-51
2021/07/19 06:23:53;;;;;;;;;;;;;;;31.18;47.95;98874.00;5109868;28;19919;-50
2021/07/19 06:26:18;;;;;;;;;;;;;;;32.14;46.31;98887.16;5109589;28;19912;-51
2021/07/19 06:28:43;;;;;;;;;;;;;;;32.69;45.19;98884.03;5109623;28;19912;-52
2021/07/19 06:31:09;;;;;;;;;;;;;;;32.42;45.49;98886.78;5109652;28;19912;-52
2021/07/19 06:33:34;;;;;;;;;;;;;;;32.16;45.88;98879.34;5103743;28;19916;-52
2021/07/19 06:35:59;;;;;;;;;;;;;;;31.84;46.78;98874.06;5090157;28;20387;-51
2021/07/19 06:38:24;;;;;;;;;;;;;;;31.65;47.01;98877.66;5089137;28;19920;-52
2021/07/19 06:40:50;;;;;;;;;;;;;;;31.32;48.15;98879.00;5084019;28;19913;-52
2021/07/19 06:43:15;;;;;;;;;;;;;;;31.32;48.73;98875.44;5074320;28;19995;-53
2021/07/19 06:45:40;;;;;;;;;;;;;;;31.52;47.96;98879.78;5077239;28;19974;-52
2021/07/19 06:48:06;;;;;;;;;;;;;;;31.49;47.79;98875.03;5069960;28;19912;-52
2021/07/19 06:50:31;;;;;;;;;;;;;;;31.47;47.83;98871.84;5069804;28;20022;-53
2021/07/19 06:52:56;;;;;;;;;;;;;;;31.15;48.82;98869.25;5068615;28;19913;-52
2021/07/19 06:55:21;;;;;;;;;;;;;;;30.79;50.05;98870.44;5081913;28;19995;-50
2021/07/19 06:57:47;;;;;;;;;;;;;;;30.76;50.29;98865.66;5090194;28;19975;-53
2021/07/19 07:00:12;;;;;;;;;;;;;;;31.35;48.56;98858.22;5090397;28;20358;-51
2021/07/19 07:02:38;;;;;;;;;;;;;;;31.66;48.15;98864.69;5089903;28;19912;-49
2021/07/19 07:05:03;;;;;;;;;;;;;;;31.12;48.90;98871.94;5082601;28;19921;-52
2021/07/19 07:07:29;;;;;;;;;;;;;;;31.10;49.57;98861.28;5080559;28;20003;-51
2021/07/19 07:09:54;;;;;;;;;;;;;;;31.47;47.48;98879.28;5075140;28;19973;-51
2021/07/19 07:12:20;;;;;;;;;;;;;;;31.23;48.03;98866.66;5086860;28;19916;-52
2021/07/19 07:14:45;;;;;;;;;;;;;;;31.19;48.38;98869.31;5090212;28;19934;-50
2021/07/19 07:17:10;;;;;;;;;;;;;;;31.08;47.91;98863.63;5090244;28;19916;-52
2021/07/19 07:19:35;;;;;;;;;;;;;;;30.92;48.35;98866.44;5109357;28;19931;-52
2021/07/19 07:22:01;;;;;;;;;;;;;;;30.92;48.34;98876.63;5084279;28;19965;-51
2021/07/19 07:24:26;;;;;;;;;;;;;;;30.71;49.42;98872.25;5089743;28;20007;-52
2021/07/19 07:26:51;;;;;;;;;;;;;;;31.31;47.75;98877.41;5093543;28;19912;-52
2021/07/19 07:29:17;;;;;;;;;;;;;;;31.42;47.70;98869.38;5093813;28;20037;-52
2021/07/19 07:31:42;;;;;;;;;;;;;;;31.62;46.85;98880.34;5093860;28;19916;-52
2021/07/19 07:34:07;;;;;;;;;;;;;;;31.76;46.17;98878.66;5088096;28;20257;-53
2021/07/19 07:36:34;;;;;;;;;;;;;;;31.63;46.50;98866.25;5082358;28;20017;-51
2021/07/19 07:38:59;;;;;;;;;;;;;;;32.02;45.40;98857.09;5073340;28;19932;-51
2021/07/19 07:41:25;;;;;;;;;;;;;;;32.14;45.09;98862.41;5073438;28;20284;-50
2021/07/19 07:43:50;;;;;;;;;;;;;;;32.42;44.56;98864.75;5072940;28;20357;-51
2021/07/19 07:46:15;;;;;;;;;;;;;;;32.27;45.22;98866.53;5108672;28;19938;-51
2021/07/19 07:48:41;;;;;;;;;;;;;;;32.46;43.95;98860.13;5086361;28;19926;-52
2021/07/19 07:51:06;;;;;;;;;;;;;;;32.50;44.33;98860.16;5073324;28;19920;-52
2021/07/19 07:53:32;;;;;;;;;;;;;;;32.68;44.06;98861.22;5072973;28;19912;-51
2021/07/19 07:55:58;;;;;;;;;;;;;;;32.91;43.91;98857.56;5090014;28;19950;-51
2021/07/19 07:58:24;;;;;;;;;;;;;;;32.39;44.62;98860.00;5087315;28;20352;-52
2021/07/19 08:00:49;;;;;;;;;;;;;;;32.64;43.99;98854.88;5081610;28;19999;-52
2021/07/19 08:03:14;;;;;;;;;;;;;;;33.04;41.87;98845.13;5074356;28;20496;-52
2021/07/19 08:05:40;;;;;;;;;;;;;;;33.00;42.40;98868.31;5081639;28;19920;-52
2021/07/19 08:08:05;;;;;;;;;;;;;;;32.96;42.18;98837.97;5071266;28;19912;-53
2021/07/19 08:10:30;;;;;;;;;;;;;;;33.06;41.77;98847.53;5079903;28;19923;-38
2021/07/19 08:12:56;;;;;;;;;;;;;;;32.71;41.99;98846.72;5093168;28;19912;-38
2021/07/19 08:15:21;;;;;;;;;;;;;;;33.00;41.95;98847.06;5093083;28;19955;-38
2021/07/19 08:17:47;;;;;;;;;;;;;;;33.43;41.03;98841.22;5092157;28;20352;-39
2021/07/19 08:20:12;;;;;;;;;;;;;;;33.09;41.85;98836.53;5092403;28;19923;-39
2021/07/19 08:22:37;;;;;;;;;;;;;;;33.70;40.47;98825.38;5092408;28;19912;-52
2021/07/19 08:25:03;;;;;;;;;;;;;;;33.60;39.95;98842.56;5091234;28;19920;-53
2021/07/19 08:27:28;;;;;;;;;;;;;;;33.34;40.43;98833.28;5091618;28;19912;-51
2021/07/19 08:29:54;;;;;;;;;;;;;;;32.82;41.43;98841.31;5091841;28;19916;-52
2021/07/19 08:32:19;;;;;;;;;;;;;;;33.37;39.86;98827.00;5090153;28;20021;-37
2021/07/19 08:34:45;;;;;;;;;;;;;;;34.38;38.00;98825.06;5094939;28;19922;-52
2021/07/19 08:37:13;;;;;;;;;;;;;;;34.70;37.48;98830.78;5091482;28;20363;-51
2021/07/19 08:39:43;;;;;;;;;;;;;;;34.60;38.16;98832.28;5100385;28;19923;-53
2021/07/19 08:42:14;;;;;;;;;;;;;;;34.85;37.45;98828.88;5100512;28;20359;-51
2021/07/19 08:44:39;;;;;;;;;;;;;;;34.73;37.24;98820.91;5096806;28;19961;-52
2021/07/19 08:47:08;;;;;;;;;;;;;;;34.87;37.05;98821.00;5092103;28;20021;-53
2021/07/19 08:49:34;;;;;;;;;;;;;;;35.10;35.42;98814.34;5092232;28;20280;-53
2021/07/19 08:51:59;;;;;;;;;;;;;;;35.32;34.51;98820.72;5092209;28;19969;-53
2021/07/19 08:54:26;;;;;;;;;;;;;;;35.13;35.07;98811.59;5090806;28;19912;-51
2021/07/19 08:56:52;;;;;;;;;;;;;;;34.98;36.01;98823.81;5091015;28;20056;-52
2021/07/19 08:59:19;;;;;;;;;;;;;;;35.07;35.95;98815.13;5090781;28;19916;-53
2021/07/19 09:01:45;;;;;;;;;;;;;;;34.98;35.75;98818.28;5090790;28;20328;-53
2021/07/19 09:04:12;;;;;;;;;;;;;;;34.65;36.60;98806.25;5091266;28;19916;-53
2021/07/19 09:06:39;;;;;;;;;;;;;;;35.37;35.44;98806.53;5090760;28;20323;-51
2021/07/19 09:09:04;;;;;;;;;;;;;;;35.52;35.70;98805.34;5089631;28;19999;-52
2021/07/19 09:11:29;;;;;;;;;;;;;;;35.59;35.37;98797.06;5091338;28;19912;-52
2021/07/19 09:14:04;;;;;;;;;;;;;;;35.49;35.42;98802.56;5091598;28;19934;-54
2021/07/19 09:16:39;;;;;;;;;;;;;;;35.06;34.64;98800.53;5090350;28;19916;-52
2021/07/19 09:19:05;;;;;;;;;;;;;;;34.60;35.49;98798.38;5107710;28;20006;-52
2021/07/19 09:21:34;;;;;;;;;;;;;;;34.12;36.99;98810.31;5110782;28;19912;-53
2021/07/19 09:24:18;;;;;;;;;;;;;;;34.02;36.56;98806.28;5111715;28;19922;-52
2021/07/19 09:26:43;;;;;;;;;;;;;;;34.08;36.51;98798.44;5112098;27;19915;-53
2021/07/19 09:29:10;;;;;;;;;;;;;;;35.19;35.22;98785.16;5111703;28;20244;-53
2021/07/19 09:31:39;;;;;;;;;;;;;;;34.38;36.50;98789.19;5111429;28;19923;-51
2021/07/19 09:34:14;;;;;;;;;;;;;;;34.53;36.39;98782.53;5111868;28;19911;-53
2021/07/19 09:36:59;;;;;;;;;;;;;;;34.60;35.79;98785.34;5111843;28;19923;-53
2021/07/19 09:39:27;;;;;;;;;;;;;;;35.96;33.79;98770.94;5111687;28;20014;-53
2021/07/19 09:42:06;;;;;;;;;;;;;;;35.70;34.73;98783.25;5111337;28;19934;-54
2021/07/19 09:44:31;;;;;;;;;;;;;;;35.42;34.87;98779.28;5111673;28;19916;-53
2021/07/19 09:47:03;;;;;;;;;;;;;;;35.46;34.26;98782.03;5110746;28;20029;-53
2021/07/19 09:49:29;;;;;;;;;;;;;;;34.62;35.26;98771.94;5111643;28;19935;-53
2021/07/19 09:51:58;;;;;;;;;;;;;;;33.99;36.21;98775.94;5111440;28;20015;-52
2021/07/19 09:54:30;;;;;;;;;;;;;;;34.46;35.62;98760.41;5107388;28;20188;-51
2021/07/19 09:56:56;;;;;;;;;;;;;;;34.99;35.19;98754.28;5090994;28;20342;-52
2021/07/19 09:59:22;;;;;;;;;;;;;;;35.55;33.89;98760.31;5090848;28;19912;-53
2021/07/19 10:01:47;;;;;;;;;;;;;;;35.31;33.58;98758.34;5089514;28;19985;-52
2021/07/19 10:04:17;;;;;;;;;;;;;;;35.32;33.42;98759.91;5090900;28;19923;-53
2021/07/19 10:06:44;;;;;;;;;;;;;;;35.08;33.56;98751.16;5091010;28;19912;-52
2021/07/19 10:09:13;;;;;;;;;;;;;;;34.83;34.10;98757.44;5091050;28;19959;-53
2021/07/19 10:11:41;;;;;;;;;;;;;;;33.61;35.86;98753.97;5090805;28;20010;-52
2021/07/19 10:14:06;;;;;;;;;;;;;;;34.31;35.31;98739.44;5090894;28;19912;-53
2021/07/19 10:16:32;;;;;;;;;;;;;;;34.47;35.20;98740.72;5090463;28;19916;-52
2021/07/19 10:18:58;;;;;;;;;;;;;;;34.10;35.28;98743.69;5105634;28;19930;-52
2021/07/19 10:21:28;;;;;;;;;;;;;;;34.38;34.94;98753.28;5110749;28;19938;-51
2021/07/19 10:23:54;;;;;;;;;;;;;;;34.45;34.59;98745.03;5110279;28;20413;-53
2021/07/19 10:26:19;;;;;;;;;;;;;;;34.47;34.63;98735.19;5109673;28;20011;-52
2021/07/19 10:28:44;;;;;;;;;;;;;;;34.79;33.45;98737.28;5108472;28;19912;-53
2021/07/19 10:31:12;;;;;;;;;;;;;;;35.36;33.34;98736.59;5090735;28;19912;-52
2021/07/19 10:33:37;;;;;;;;;;;;;;;35.11;33.77;98736.56;5090804;28;19923;-52
2021/07/19 10:36:04;;;;;;;;;;;;;;;35.15;33.42;98733.81;5088385;28;19912;-53
2021/07/19 10:38:30;;;;;;;;;;;;;;;35.69;32.26;98728.31;5089023;28;19912;-53
2021/07/19 10:40:58;;;;;;;;;;;;;;;35.39;33.56;98730.28;5090254;28;20303;-52
2021/07/19 10:43:25;;;;;;;;;;;;;;;34.42;34.48;98734.75;5090681;28;20000;-51
2021/07/19 10:45:53;;;;;;;;;;;;;;;34.47;34.99;98726.13;5089362;28;19916;-52
2021/07/19 10:48:27;;;;;;;;;;;;;;;34.93;34.15;98716.41;5090679;28;19919;-52
2021/07/19 10:50:53;;;;;;;;;;;;;;;34.90;33.90;98722.69;5090177;28;19938;-51
2021/07/19 10:53:20;;;;;;;;;;;;;;;35.31;33.32;98712.09;5090039;28;20368;-53
2021/07/19 10:55:45;;;;;;;;;;;;;;;35.39;32.82;98704.59;5090206;28;19969;-53
2021/07/19 10:58:17;;;;;;;;;;;;;;;35.01;34.17;98704.97;5089135;28;19912;-53
2021/07/19 11:00:46;;;;;;;;;;;;;;;35.20;33.79;98712.09;5094244;28;20386;-53
2021/07/19 11:03:12;;;;;;;;;;;;;;;34.85;33.63;98699.03;5094086;28;19912;-52
2021/07/19 11:05:38;;;;;;;;;;;;;;;34.64;33.95;98688.69;5093949;28;20442;-52
2021/07/19 11:08:03;;;;;;;;;;;;;;;35.10;32.74;98690.75;5094017;28;19924;-52
2021/07/19 11:10:29;;;;;;;;;;;;;;;35.37;32.76;98682.09;5094060;28;19962;-53
2021/07/19 11:12:56;;;;;;;;;;;;;;;35.46;32.50;98693.53;5092737;28;19916;-53
2021/07/19 11:15:31;;;;;;;;;;;;;;;34.98;33.05;98671.81;5092463;28;19916;-52
2021/07/19 11:17:56;;;;;;;;;;;;;;;35.85;32.47;98678.84;5101121;28;19920;-53
2021/07/19 11:20:21;;;;;;;;;;;;;;;36.01;30.49;98679.22;5107972;28;20257;-52
2021/07/19 11:22:47;;;;;;;;;;;;;;;35.91;31.57;98679.25;5094090;28;19970;-53
2021/07/19 11:25:13;;;;;;;;;;;;;;;35.83;31.50;98664.63;5092548;28;19972;-54
2021/07/19 11:27:39;;;;;;;;;;;;;;;35.62;31.71;98651.63;5093639;28;20413;-54
2021/07/19 11:30:05;;;;;;;;;;;;;;;36.47;31.00;98680.22;5093820;28;20429;-52
2021/07/19 11:32:30;;;;;;;;;;;;;;;35.85;30.68;98661.47;5093365;28;19994;-52
2021/07/19 11:35:05;;;;;;;;;;;;;;;35.77;31.26;98664.25;5093837;28;19947;-52
2021/07/19 11:37:31;;;;;;;;;;;;;;;35.03;31.99;98668.63;5093675;28;19918;-53
2021/07/19 11:39:57;;;;;;;;;;;;;;;35.23;31.87;98642.22;5093001;28;20318;-52
2021/07/19 11:42:32;;;;;;;;;;;;;;;35.28;31.54;98646.56;5091983;28;19932;-53
2021/07/19 11:45:05;;;;;;;;;;;;;;;34.40;33.63;98646.00;5093070;28;20014;-53
2021/07/19 11:47:30;;;;;;;;;;;;;;;35.31;32.47;98659.56;5093052;28;20428;-52
2021/07/19 11:50:05;;;;;;;;;;;;;;;35.59;30.99;98647.69;5093236;28;19952;-53
2021/07/19 11:52:30;;;;;;;;;;;;;;;35.23;32.01;98652.47;5092920;28;19916;-53
2021/07/19 11:54:56;;;;;;;;;;;;;;;35.21;31.43;98641.03;5093276;28;20291;-53
2021/07/19 11:57:22;;;;;;;;;;;;;;;35.59;31.72;98628.31;5091018;28;19912;-53
2021/07/19 11:59:47;;;;;;;;;;;;;;;35.99;30.52;98640.09;5091488;28;20073;-54
2021/07/19 12:02:12;;;;;;;;;;;;;;;35.52;31.76;98638.63;5091729;28;20391;-52
2021/07/19 12:04:38;;;;;;;;;;;;;;;35.69;30.86;98631.50;5093170;28;20370;-52
2021/07/19 12:07:03;;;;;;;;;;;;;;;36.26;30.11;98639.59;5093141;28;20015;-52
2021/07/19 12:09:29;;;;;;;;;;;;;;;35.62;31.83;98638.59;5092476;28;19912;-52
2021/07/19 12:11:54;;;;;;;;;;;;;;;35.54;31.80;98636.25;5090659;28;20376;-52
2021/07/19 12:14:20;;;;;;;;;;;;;;;36.26;31.01;98627.75;5093003;28;19920;-52
2021/07/19 12:16:45;;;;;;;;;;;;;;;36.00;30.70;98613.19;5092650;28;20312;-53
2021/07/19 12:19:14;;;;;;;;;;;;;;;36.21;30.60;98606.78;5109844;28;20387;-52
2021/07/19 12:21:44;;;;;;;;;;;;;;;36.32;30.03;98601.97;5095776;28;19919;-53
2021/07/19 12:24:10;;;;;;;;;;;;;;;35.52;31.40;98608.19;5092867;28;19951;-52
2021/07/19 12:26:45;;;;;;;;;;;;;;;35.96;30.60;98607.66;5092586;28;19952;-53
2021/07/19 12:29:12;;;;;;;;;;;;;;;36.75;29.50;98607.25;5092428;28;19919;-54
2021/07/19 12:31:38;;;;;;;;;;;;;;;36.72;28.85;98612.81;5092426;28;19912;-53
2021/07/19 12:34:07;;;;;;;;;;;;;;;36.28;30.05;98598.44;5091165;28;19919;-51
2021/07/19 12:36:33;;;;;;;;;;;;;;;36.46;30.16;98597.53;5092504;28;19951;-53
2021/07/19 12:38:58;;;;;;;;;;;;;;;36.16;30.38;98604.44;5092476;28;19952;-53
2021/07/19 12:41:23;;;;;;;;;;;;;;;36.31;30.15;98594.88;5092423;28;19919;-52
2021/07/19 12:43:49;;;;;;;;;;;;;;;36.60;28.73;98578.84;5091147;28;20009;-53